Time;durP1;ratioP1;P1;durP2;ratioP2;P2;SDS_P1;SDS_P2;PMS_P1;PMS_P2;Temp;Humidity;BMP_temperature;BMP_pressure;BME280_temperature;BME280_humidity;BME280_pressure;Samples;Min_cycle;Max_cycle;Signal;HPM_P1;HPM_P2
2022/07/09 00:00:09;;;;;;;371.67;351.13;;;15.10;99.90;;;;;;5115974;28;20105;-61
2022/07/09 00:02:36;;;;;;;406.80;384.10;;;15.10;99.90;;;;;;5114395;28;20092;-61
2022/07/09 00:05:02;;;;;;;343.45;324.92;;;15.10;99.90;;;;;;5115370;28;20044;-61
2022/07/09 00:07:28;;;;;;;375.25;352.92;;;15.10;99.90;;;;;;5115540;28;20047;-61
2022/07/09 00:09:54;;;;;;;391.77;368.15;;;15.10;99.90;;;;;;5114708;28;20047;-61
2022/07/09 00:12:20;;;;;;;353.77;332.83;;;15.10;99.90;;;;;;5115028;28;20036;-61
2022/07/09 00:14:46;;;;;;;418.85;393.63;;;15.10;99.90;;;;;;5097169;28;20659;-61
2022/07/09 00:17:12;;;;;;;397.98;374.98;;;15.10;99.90;;;;;;5096420;28;20043;-61
2022/07/09 00:19:38;;;;;;;321.83;304.35;;;15.10;99.90;;;;;;5114946;28;20575;-61
2022/07/09 00:22:05;;;;;;;310.48;292.95;;;15.10;99.90;;;;;;5114185;28;20187;-61
2022/07/09 00:24:31;;;;;;;374.55;351.77;;;15.20;99.90;;;;;;5114245;28;20047;-60
2022/07/09 00:26:57;;;;;;;327.27;309.00;;;15.10;99.90;;;;;;5115466;28;20050;-61
2022/07/09 00:29:23;;;;;;;318.95;301.70;;;15.10;99.90;;;;;;5096337;28;20039;-61
2022/07/09 00:31:49;;;;;;;444.33;417.50;;;15.10;99.90;;;;;;5114807;28;20470;-61
2022/07/09 00:34:14;;;;;;;355.35;333.60;;;15.10;99.90;;;;;;5115318;28;20059;-61
2022/07/09 00:36:40;;;;;;;334.45;313.52;;;15.10;99.90;;;;;;5114139;28;20044;-61
2022/07/09 00:39:06;;;;;;;428.27;403.08;;;15.10;99.90;;;;;;5114779;28;20051;-61
2022/07/09 00:41:32;;;;;;;410.05;384.63;;;15.10;99.90;;;;;;5115130;28;20089;-61
2022/07/09 00:43:57;;;;;;;376.08;354.02;;;15.10;99.90;;;;;;5113874;28;20039;-61
2022/07/09 00:46:23;;;;;;;553.28;517.50;;;15.10;99.90;;;;;;5114352;28;20051;-61
2022/07/09 00:48:49;;;;;;;448.63;422.55;;;15.20;99.90;;;;;;5096666;28;20039;-61
2022/07/09 00:51:17;;;;;;;450.23;421.95;;;15.20;99.90;;;;;;5113690;28;20554;-61
2022/07/09 00:53:45;;;;;;;422.15;397.85;;;15.20;99.90;;;;;;5114987;28;20043;-61
2022/07/09 00:56:12;;;;;;;405.73;382.90;;;15.20;99.90;;;;;;5114470;28;20043;-61
2022/07/09 00:58:38;;;;;;;325.90;307.67;;;15.20;99.90;;;;;;5113753;28;20046;-61
2022/07/09 01:01:06;;;;;;;428.02;402.85;;;15.20;99.90;;;;;;5114612;28;20062;-61
2022/07/09 01:03:31;;;;;;;390.58;367.65;;;15.20;99.90;;;;;;5114494;28;20053;-61
2022/07/09 01:05:58;;;;;;;422.67;397.10;;;15.20;99.90;;;;;;5112760;28;20055;-61
2022/07/09 01:08:25;;;;;;;340.90;321.52;;;15.30;99.90;;;;;;5114314;28;20599;-61
2022/07/09 01:10:51;;;;;;;420.55;396.02;;;15.20;99.90;;;;;;5114601;28;20474;-60
2022/07/09 01:13:17;;;;;;;419.13;393.20;;;15.20;99.90;;;;;;5113129;28;20481;-61
2022/07/09 01:15:43;;;;;;;374.23;350.85;;;15.30;99.90;;;;;;5114401;28;20054;-61
2022/07/09 01:18:11;;;;;;;375.65;353.08;;;15.30;99.90;;;;;;5114441;28;20035;-61
2022/07/09 01:20:37;;;;;;;292.38;276.67;;;15.30;99.90;;;;;;5095051;28;20055;-61
2022/07/09 01:23:03;;;;;;;413.00;387.52;;;15.30;99.90;;;;;;5113874;28;20761;-61
2022/07/09 01:25:36;;;;;;;357.95;336.67;;;15.30;99.90;;;;;;5113937;28;20497;-60
2022/07/09 01:28:10;;;;;;;365.60;343.60;;;15.30;99.90;;;;;;5113013;28;20040;-61
2022/07/09 01:30:38;;;;;;;490.50;459.63;;;15.30;99.90;;;;;;5113787;28;20405;-61
2022/07/09 01:33:04;;;;;;;419.85;395.27;;;15.40;99.90;;;;;;5112639;28;20419;-61
2022/07/09 01:35:30;;;;;;;505.38;472.35;;;15.40;99.90;;;;;;5113792;28;20496;-61
2022/07/09 01:37:56;;;;;;;475.55;445.70;;;15.40;99.90;;;;;;5113982;28;20513;-61
2022/07/09 01:40:22;;;;;;;470.20;440.20;;;15.50;99.90;;;;;;5109254;28;20490;-61
2022/07/09 01:42:48;;;;;;;359.10;337.15;;;15.50;99.90;;;;;;5113504;28;20097;-61
2022/07/09 01:45:15;;;;;;;505.08;473.35;;;15.60;99.90;;;;;;5113651;28;20055;-61
2022/07/09 01:47:41;;;;;;;489.20;460.25;;;15.60;99.90;;;;;;5113016;28;20039;-61
2022/07/09 01:50:08;;;;;;;485.27;457.00;;;15.50;99.90;;;;;;5113076;28;20043;-61
2022/07/09 01:52:34;;;;;;;512.85;480.75;;;15.60;99.90;;;;;;5113850;28;20469;-61
2022/07/09 01:55:00;;;;;;;542.95;509.05;;;15.70;99.90;;;;;;5113037;28;20126;-61
2022/07/09 01:57:26;;;;;;;507.60;476.13;;;15.70;99.90;;;;;;5113093;28;20108;-61
2022/07/09 01:59:52;;;;;;;471.98;443.38;;;15.70;99.90;;;;;;5113717;28;20043;-61
2022/07/09 02:02:18;;;;;;;609.60;571.00;;;15.70;99.90;;;;;;5112265;28;20039;-61
2022/07/09 02:04:45;;;;;;;535.58;502.42;;;15.80;99.90;;;;;;5113282;28;20104;-61
2022/07/09 02:07:12;;;;;;;440.67;413.67;;;15.80;99.90;;;;;;5113260;28;20068;-61
2022/07/09 02:09:38;;;;;;;423.42;398.33;;;15.80;99.90;;;;;;5112740;28;20042;-61
2022/07/09 02:12:04;;;;;;;389.77;367.50;;;15.80;99.90;;;;;;5113228;28;20089;-61
2022/07/09 02:14:30;;;;;;;410.27;386.55;;;15.80;99.90;;;;;;5113115;28;20047;-61
2022/07/09 02:16:57;;;;;;;389.13;368.10;;;15.90;99.90;;;;;;5112800;28;20043;-61
2022/07/09 02:19:23;;;;;;;525.15;491.95;;;15.80;99.90;;;;;;5113250;28;20044;-61
2022/07/09 02:21:49;;;;;;;319.55;303.05;;;15.80;99.90;;;;;;5111997;28;20054;-61
2022/07/09 02:24:15;;;;;;;348.05;328.70;;;15.70;99.90;;;;;;5093829;28;20043;-61
2022/07/09 02:26:41;;;;;;;347.27;327.63;;;15.70;99.90;;;;;;5113105;28;20047;-60
2022/07/09 02:29:07;;;;;;;453.77;427.80;;;15.70;99.90;;;;;;5112582;28;20097;-61
2022/07/09 02:31:33;;;;;;;438.23;413.42;;;15.80;99.90;;;;;;5113026;28;20383;-61
2022/07/09 02:33:59;;;;;;;361.77;341.05;;;15.80;99.90;;;;;;5112450;28;20477;-61
2022/07/09 02:36:25;;;;;;;354.88;334.77;;;15.80;99.90;;;;;;5112267;28;20644;-61
2022/07/09 02:38:51;;;;;;;352.17;331.80;;;15.70;99.90;;;;;;5113273;28;20076;-60
2022/07/09 02:41:17;;;;;;;349.23;328.63;;;15.60;99.90;;;;;;5112462;28;20043;-60
2022/07/09 02:43:43;;;;;;;297.35;281.92;;;15.60;99.90;;;;;;5112751;28;20044;-61
2022/07/09 02:46:10;;;;;;;373.23;353.45;;;15.60;99.90;;;;;;5095343;28;20067;-61
2022/07/09 02:48:36;;;;;;;387.67;365.30;;;15.60;99.90;;;;;;5096622;28;20056;-61
2022/07/09 02:51:03;;;;;;;425.00;399.73;;;15.70;99.90;;;;;;5077476;28;20059;-61
2022/07/09 02:53:29;;;;;;;371.55;350.83;;;15.70;99.90;;;;;;5096829;28;20044;-60
2022/07/09 02:55:55;;;;;;;313.95;296.27;;;15.70;99.90;;;;;;5096362;28;20348;-61
2022/07/09 02:58:20;;;;;;;300.63;284.92;;;15.70;99.90;;;;;;5095797;28;20119;-61
2022/07/09 03:00:46;;;;;;;298.80;283.33;;;15.60;99.90;;;;;;5096322;28;20482;-60
2022/07/09 03:03:12;;;;;;;296.27;280.90;;;15.60;99.90;;;;;;5096122;28;20494;-61
2022/07/09 03:05:38;;;;;;;349.45;330.45;;;15.50;99.90;;;;;;5095997;28;20114;-60
2022/07/09 03:08:05;;;;;;;320.40;302.40;;;15.40;99.90;;;;;;5096260;28;20044;-60
2022/07/09 03:10:31;;;;;;;326.88;309.08;;;15.40;99.90;;;;;;5096346;28;20051;-61
2022/07/09 03:12:56;;;;;;;321.45;303.77;;;15.40;99.90;;;;;;5094213;28;20451;-60
2022/07/09 03:15:22;;;;;;;325.00;307.88;;;15.30;99.90;;;;;;5096519;28;20481;-60
2022/07/09 03:17:48;;;;;;;313.05;295.80;;;15.40;99.90;;;;;;5095770;28;20409;-61
2022/07/09 03:20:14;;;;;;;354.80;334.80;;;15.30;99.90;;;;;;5095516;28;20089;-61
2022/07/09 03:22:41;;;;;;;412.23;386.75;;;15.20;99.90;;;;;;5096118;28;20044;-61
2022/07/09 03:25:07;;;;;;;350.30;331.35;;;15.30;99.90;;;;;;5095787;28;20040;-61
2022/07/09 03:27:33;;;;;;;339.98;322.17;;;15.20;99.90;;;;;;5094915;28;20091;-60
2022/07/09 03:29:59;;;;;;;331.63;313.42;;;15.20;99.90;;;;;;5094568;28;20382;-61
2022/07/09 03:32:26;;;;;;;295.33;278.40;;;15.20;99.90;;;;;;5095029;28;20070;-61
2022/07/09 03:34:52;;;;;;;246.48;232.85;;;15.20;99.90;;;;;;5095776;28;20076;-60
2022/07/09 03:37:18;;;;;;;276.13;261.05;;;15.20;99.90;;;;;;5096105;28;20052;-60
2022/07/09 03:39:46;;;;;;;288.60;272.83;;;15.20;99.90;;;;;;5093729;28;20044;-61
2022/07/09 03:42:12;;;;;;;310.30;293.48;;;15.30;99.90;;;;;;5095801;28;20131;-60
2022/07/09 03:44:38;;;;;;;390.80;369.60;;;15.30;99.90;;;;;;5100261;28;20116;-61
2022/07/09 03:47:05;;;;;;;387.75;366.05;;;15.30;99.90;;;;;;5114960;28;20450;-61
2022/07/09 03:49:31;;;;;;;259.55;245.70;;;15.30;99.90;;;;;;5115994;28;20044;-61
2022/07/09 03:51:56;;;;;;;315.70;298.65;;;15.40;99.90;;;;;;5115881;28;20496;-61
2022/07/09 03:54:23;;;;;;;272.63;258.00;;;15.40;99.90;;;;;;5115124;28;20040;-61
2022/07/09 03:56:49;;;;;;;356.45;336.73;;;15.40;99.90;;;;;;5115712;28;20044;-60
2022/07/09 03:59:15;;;;;;;379.95;358.45;;;15.50;99.90;;;;;;5115931;28;20075;-60
2022/07/09 04:01:41;;;;;;;265.42;251.68;;;15.50;99.90;;;;;;5114825;28;20050;-61
2022/07/09 04:04:07;;;;;;;395.17;373.25;;;15.50;99.90;;;;;;5115097;28;20048;-61
2022/07/09 04:06:32;;;;;;;287.27;271.75;;;15.50;99.90;;;;;;5115657;28;20087;-61
2022/07/09 04:09:03;;;;;;;387.30;366.17;;;15.50;99.90;;;;;;5114801;28;20082;-61
2022/07/09 04:11:31;;;;;;;285.67;271.10;;;15.50;99.90;;;;;;5114752;28;20400;-60
2022/07/09 04:13:58;;;;;;;312.23;296.10;;;15.60;99.90;;;;;;5115422;28;20397;-61
2022/07/09 04:16:24;;;;;;;350.15;331.55;;;15.60;99.90;;;;;;5114766;28;20047;-61
2022/07/09 04:18:49;;;;;;;332.90;314.88;;;15.60;99.90;;;;;;5114651;28;20040;-60
2022/07/09 04:21:16;;;;;;;315.25;298.63;;;15.60;99.90;;;;;;5115623;28;20051;-61
2022/07/09 04:23:42;;;;;;;448.90;422.83;;;15.60;99.90;;;;;;5114559;28;20047;-61
2022/07/09 04:26:09;;;;;;;377.48;356.85;;;15.60;99.90;;;;;;5096609;28;20078;-61
2022/07/09 04:28:37;;;;;;;291.98;277.23;;;15.60;99.90;;;;;;5114380;28;20036;-61
2022/07/09 04:31:02;;;;;;;334.25;316.13;;;15.70;99.90;;;;;;5115413;28;20056;-61
2022/07/09 04:33:28;;;;;;;322.48;306.08;;;15.70;99.90;;;;;;5114780;28;20168;-61
2022/07/09 04:35:54;;;;;;;367.55;346.52;;;15.70;99.90;;;;;;5114210;28;20044;-61
2022/07/09 04:38:20;;;;;;;355.65;337.10;;;15.70;99.90;;;;;;5114601;28;20092;-61
2022/07/09 04:40:46;;;;;;;344.90;326.83;;;15.80;99.90;;;;;;5114287;28;20090;-60
2022/07/09 04:43:11;;;;;;;412.42;388.75;;;15.80;99.90;;;;;;5113795;28;20043;-60
2022/07/09 04:45:37;;;;;;;374.35;354.38;;;15.90;99.90;;;;;;5114006;28;20139;-60
2022/07/09 04:48:03;;;;;;;327.17;309.55;;;15.90;99.90;;;;;;5114252;28;20031;-61
2022/07/09 04:50:29;;;;;;;344.08;325.58;;;15.90;99.90;;;;;;5113675;28;20046;-61
2022/07/09 04:52:55;;;;;;;321.08;304.65;;;16.00;99.90;;;;;;5114079;28;20043;-61
2022/07/09 04:55:21;;;;;;;373.30;353.33;;;16.00;99.90;;;;;;5114007;28;20039;-61
2022/07/09 04:57:47;;;;;;;331.13;314.23;;;16.00;99.90;;;;;;5113998;28;20044;-61
2022/07/09 05:00:15;;;;;;;345.35;327.23;;;16.00;99.90;;;;;;5114785;28;20039;-60
2022/07/09 05:02:42;;;;;;;343.20;325.27;;;16.00;99.90;;;;;;5113945;28;20501;-61
2022/07/09 05:05:08;;;;;;;343.92;326.73;;;16.00;99.90;;;;;;5113738;28;20048;-61
2022/07/09 05:07:35;;;;;;;407.15;385.33;;;16.00;99.90;;;;;;5113579;28;20043;-61
2022/07/09 05:10:01;;;;;;;354.17;335.48;;;16.10;99.90;;;;;;5114233;28;20402;-61
2022/07/09 05:12:28;;;;;;;356.92;337.80;;;16.10;99.90;;;;;;5113068;28;20435;-61
2022/07/09 05:14:55;;;;;;;358.77;339.55;;;16.10;99.90;;;;;;5096048;28;20047;-61
2022/07/09 05:17:21;;;;;;;455.73;429.15;;;16.20;99.90;;;;;;5095846;28;20482;-60
2022/07/09 05:19:47;;;;;;;383.27;361.52;;;16.20;99.90;;;;;;5113700;28;20071;-61
2022/07/09 05:22:13;;;;;;;394.40;372.58;;;16.20;99.90;;;;;;5095400;28;20083;-61
2022/07/09 05:24:40;;;;;;;442.55;417.25;;;16.20;99.90;;;;;;5113827;28;20416;-61
2022/07/09 05:27:06;;;;;;;404.08;380.83;;;16.20;99.90;;;;;;5113473;28;20478;-61
2022/07/09 05:29:32;;;;;;;419.48;394.60;;;16.20;99.90;;;;;;5113949;28;20047;-61
2022/07/09 05:31:58;;;;;;;410.20;386.30;;;16.30;99.90;;;;;;5113159;28;20040;-61
2022/07/09 05:34:24;;;;;;;473.67;444.85;;;16.30;99.90;;;;;;5114203;28;20047;-60
2022/07/09 05:36:51;;;;;;;421.27;394.80;;;16.40;99.90;;;;;;5113994;28;20499;-61
2022/07/09 05:39:18;;;;;;;446.00;417.33;;;16.40;99.90;;;;;;5112600;28;20086;-60
2022/07/09 05:41:43;;;;;;;369.98;348.70;;;16.50;99.90;;;;;;5113952;28;20165;-60
2022/07/09 05:44:09;;;;;;;427.63;402.98;;;16.50;99.90;;;;;;5113484;28;20502;-61
2022/07/09 05:46:35;;;;;;;496.30;467.20;;;16.50;99.90;;;;;;5112588;28;20489;-61
2022/07/09 05:49:02;;;;;;;361.08;342.70;;;16.60;99.90;;;;;;5113589;28;20071;-61
2022/07/09 05:51:28;;;;;;;363.08;342.05;;;16.60;99.90;;;;;;5113366;28;20047;-60
2022/07/09 05:53:54;;;;;;;494.30;464.83;;;16.60;99.90;;;;;;5112809;28;20040;-61
2022/07/09 05:56:20;;;;;;;421.05;397.50;;;16.70;99.90;;;;;;5113004;28;20500;-60
2022/07/09 05:58:46;;;;;;;376.88;354.17;;;16.80;99.90;;;;;;5113748;28;20043;-61
2022/07/09 06:01:13;;;;;;;431.90;405.63;;;16.80;99.90;;;;;;5112407;28;20058;-61
2022/07/09 06:03:39;;;;;;;470.02;443.45;;;16.80;99.90;;;;;;5113569;28;20046;-61
2022/07/09 06:06:05;;;;;;;451.45;425.33;;;16.80;99.90;;;;;;5113134;28;20039;-61
2022/07/09 06:08:33;;;;;;;421.30;396.40;;;16.90;99.90;;;;;;5111957;28;20039;-61
2022/07/09 06:11:00;;;;;;;397.63;374.55;;;16.90;99.90;;;;;;5113221;28;20059;-61
2022/07/09 06:13:25;;;;;;;372.83;351.83;;;16.90;99.90;;;;;;5112624;28;20039;-61
2022/07/09 06:15:52;;;;;;;408.27;386.25;;;17.00;99.90;;;;;;5109653;28;20047;-61
2022/07/09 06:18:18;;;;;;;347.27;329.33;;;17.00;99.90;;;;;;5113402;28;20071;-61
2022/07/09 06:20:45;;;;;;;552.22;520.03;;;17.10;99.90;;;;;;5113494;28;20052;-60
2022/07/09 06:23:11;;;;;;;441.23;417.92;;;17.20;99.90;;;;;;5111822;28;20127;-61
2022/07/09 06:25:38;;;;;;;325.13;308.55;;;17.20;99.90;;;;;;5113132;28;20486;-61
2022/07/09 06:28:05;;;;;;;450.75;426.70;;;17.30;99.90;;;;;;5113371;28;20508;-61
2022/07/09 06:30:31;;;;;;;489.08;460.42;;;17.40;99.90;;;;;;5112326;28;20046;-61
2022/07/09 06:32:57;;;;;;;510.95;480.55;;;17.40;99.90;;;;;;5112810;28;20407;-61
2022/07/09 06:35:23;;;;;;;410.20;388.60;;;17.30;99.90;;;;;;5094213;28;20142;-60
2022/07/09 06:37:49;;;;;;;409.67;386.80;;;17.40;99.90;;;;;;5112961;28;20126;-61
2022/07/09 06:40:15;;;;;;;404.83;382.88;;;17.40;99.90;;;;;;5112546;28;20046;-60
2022/07/09 06:42:41;;;;;;;465.58;438.67;;;17.40;99.90;;;;;;5112501;28;20047;-61
2022/07/09 06:45:16;;;;;;;487.65;461.38;;;17.40;99.90;;;;;;5094309;28;20131;-61
2022/07/09 06:47:42;;;;;;;431.65;409.23;;;17.40;99.90;;;;;;5113103;28;20075;-61
2022/07/09 06:50:08;;;;;;;453.10;427.85;;;17.40;99.90;;;;;;5112051;28;20481;-61
2022/07/09 06:52:34;;;;;;;347.67;329.98;;;17.40;99.90;;;;;;5112750;28;20367;-61
2022/07/09 06:55:00;;;;;;;538.97;507.38;;;17.40;99.90;;;;;;5112979;28;20048;-61
2022/07/09 06:57:26;;;;;;;398.10;376.63;;;17.40;99.90;;;;;;5112168;28;20404;-61
2022/07/09 06:59:52;;;;;;;368.27;349.08;;;17.40;99.90;;;;;;5112469;28;20100;-60
2022/07/09 07:02:18;;;;;;;393.35;371.20;;;17.50;99.90;;;;;;5112494;28;20044;-61
2022/07/09 07:04:44;;;;;;;426.48;402.92;;;17.50;99.90;;;;;;5112047;28;20097;-61
2022/07/09 07:07:09;;;;;;;333.30;316.60;;;17.60;99.90;;;;;;5112334;28;20138;-61
2022/07/09 07:09:35;;;;;;;458.63;433.58;;;17.70;99.90;;;;;;5112703;28;20058;-61
2022/07/09 07:12:01;;;;;;;387.67;366.65;;;17.80;99.90;;;;;;5112238;28;20135;-61
2022/07/09 07:14:27;;;;;;;420.75;398.58;;;17.80;99.90;;;;;;5112694;28;20059;-61
2022/07/09 07:16:53;;;;;;;486.27;458.42;;;17.90;99.90;;;;;;5112024;28;20490;-61
2022/07/09 07:19:25;;;;;;;297.50;282.60;;;18.00;99.90;;;;;;5112148;28;20128;-60
2022/07/09 07:21:51;;;;;;;412.02;389.90;;;18.00;99.90;;;;;;5112640;28;20050;-61
2022/07/09 07:24:17;;;;;;;315.77;299.05;;;18.20;99.90;;;;;;5112169;28;20039;-61
2022/07/09 07:26:42;;;;;;;321.48;306.95;;;18.20;99.90;;;;;;5111655;28;20044;-61
2022/07/09 07:29:08;;;;;;;468.58;444.15;;;18.40;99.90;;;;;;5112000;28;20108;-61
2022/07/09 07:31:34;;;;;;;539.38;507.83;;;18.40;99.90;;;;;;5112518;28;20439;-61
2022/07/09 07:34:00;;;;;;;541.72;509.52;;;18.40;99.90;;;;;;5115424;28;20121;-61
2022/07/09 07:36:27;;;;;;;427.98;406.42;;;18.50;99.90;;;;;;5115804;28;20044;-61
2022/07/09 07:38:53;;;;;;;408.67;388.65;;;18.50;99.90;;;;;;5114936;28;20048;-61
2022/07/09 07:41:20;;;;;;;453.45;430.38;;;18.50;99.90;;;;;;5115960;28;20040;-61
2022/07/09 07:43:46;;;;;;;419.60;399.08;;;18.60;99.90;;;;;;5115374;28;20043;-61
2022/07/09 07:46:12;;;;;;;619.30;583.47;;;18.80;99.90;;;;;;5114377;28;20404;-61
2022/07/09 07:48:40;;;;;;;531.88;503.13;;;19.00;99.90;;;;;;5115740;28;20042;-61
2022/07/09 07:51:07;;;;;;;644.92;606.67;;;19.10;99.90;;;;;;5115957;28;20127;-61
2022/07/09 07:53:33;;;;;;;618.58;582.67;;;19.10;99.90;;;;;;5114477;28;20434;-61
2022/07/09 07:56:01;;;;;;;626.38;589.78;;;19.10;99.90;;;;;;5115744;28;20210;-61
2022/07/09 07:58:26;;;;;;;637.92;600.60;;;19.10;99.90;;;;;;5112936;28;20047;-61
2022/07/09 08:00:53;;;;;;;641.30;602.80;;;19.10;99.90;;;;;;5114518;28;20043;-61
2022/07/09 08:03:18;;;;;;;535.75;507.30;;;19.10;99.90;;;;;;5115788;28;20390;-61
2022/07/09 08:05:44;;;;;;;563.92;532.67;;;19.20;99.90;;;;;;5115281;28;20044;-61
2022/07/09 08:08:10;;;;;;;704.22;660.25;;;19.30;99.90;;;;;;5114210;28;20100;-61
2022/07/09 08:10:36;;;;;;;695.03;653.65;;;19.30;99.90;;;;;;5114616;28;20040;-61
2022/07/09 08:13:02;;;;;;;780.13;727.95;;;19.30;99.90;;;;;;5115203;28;20035;-61
2022/07/09 08:15:28;;;;;;;699.75;656.67;;;19.30;99.90;;;;;;5114629;28;20075;-61
2022/07/09 08:17:54;;;;;;;751.47;703.97;;;19.10;99.90;;;;;;5115320;28;20051;-61
2022/07/09 08:20:20;;;;;;;851.63;792.55;;;19.00;99.90;;;;;;5115456;28;20481;-60
2022/07/09 08:22:46;;;;;;;666.45;624.70;;;19.00;99.90;;;;;;5114229;28;20052;-61
2022/07/09 08:25:13;;;;;;;798.33;745.17;;;18.90;99.90;;;;;;5115470;28;20461;-61
2022/07/09 08:27:40;;;;;;;712.40;667.17;;;18.90;99.90;;;;;;5114068;28;20075;-61
2022/07/09 08:30:06;;;;;;;604.80;569.35;;;19.00;99.90;;;;;;5114459;28;20055;-61
2022/07/09 08:32:32;;;;;;;600.05;564.70;;;19.30;99.90;;;;;;5096718;28;20051;-61
2022/07/09 08:34:58;;;;;;;790.92;739.10;;;19.60;99.90;;;;;;5113268;28;20183;-60
2022/07/09 08:37:23;;;;;;;800.60;748.60;;;19.60;99.90;;;;;;5113890;28;20071;-61
2022/07/09 08:39:49;;;;;;;660.45;620.58;;;19.60;99.90;;;;;;5113977;28;20043;-61
2022/07/09 08:42:16;;;;;;;812.13;757.17;;;19.80;99.90;;;;;;5093604;28;20047;-61
2022/07/09 08:44:46;;;;;;;931.85;864.28;;;19.90;99.90;;;;;;5112877;28;20079;-61
2022/07/09 08:47:13;;;;;;;855.20;796.67;;;19.70;99.90;;;;;;5112866;28;20378;-61
2022/07/09 08:49:41;;;;;;;813.78;758.95;;;19.60;99.90;;;;;;5112690;28;20050;-60
2022/07/09 08:52:07;;;;;;;830.08;773.50;;;19.50;99.90;;;;;;5114060;28;20469;-60
2022/07/09 08:54:37;;;;;;;868.58;807.13;;;19.60;99.90;;;;;;5113887;28;20148;-61
2022/07/09 08:57:04;;;;;;;928.30;861.00;;;19.60;99.90;;;;;;5110893;28;20039;-61
2022/07/09 08:59:30;;;;;;;845.22;786.20;;;19.60;99.90;;;;;;5093054;28;20161;-61
2022/07/09 09:01:56;;;;;;;815.35;760.97;;;19.60;99.90;;;;;;5114399;28;20465;-61
2022/07/09 09:04:23;;;;;;;904.22;834.70;;;19.70;99.90;;;;;;5113890;28;20050;-61
2022/07/09 09:06:50;;;;;;;627.45;580.97;;;19.90;99.90;;;;;;5114375;28;20127;-61
2022/07/09 09:09:22;;;;;;;1999.90;999.90;;;20.10;99.90;;;;;;5114083;28;20481;-61
2022/07/09 09:11:50;;;;;;;1999.90;999.90;;;20.20;99.90;;;;;;5113523;28;20052;-61
2022/07/09 09:14:22;;;;;;;1999.90;999.90;;;20.30;99.90;;;;;;5104449;28;20048;-61
2022/07/09 09:16:49;;;;;;;1999.90;999.90;;;20.30;99.90;;;;;;5093908;28;20490;-61
2022/07/09 09:19:15;;;;;;;1999.90;999.90;;;20.30;99.90;;;;;;5102378;28;20367;-61
2022/07/09 09:21:40;;;;;;;1999.90;999.90;;;20.20;99.90;;;;;;5113187;28;20050;-61
2022/07/09 09:24:06;;;;;;;1999.90;999.90;;;20.20;99.90;;;;;;5113105;28;20516;-61
2022/07/09 09:26:35;;;;;;;1999.90;999.90;;;20.10;99.90;;;;;;5114207;28;20047;-61
2022/07/09 09:29:03;;;;;;;1999.90;999.90;;;20.10;99.90;;;;;;5113144;28;20090;-61
2022/07/09 09:31:31;;;;;;;1999.90;999.90;;;20.10;99.90;;;;;;5112751;28;20050;-61
2022/07/09 09:34:08;;;;;;;1999.90;999.90;;;20.20;99.90;;;;;;5095899;28;20040;-61
2022/07/09 09:36:37;;;;;;;1999.90;999.90;;;20.30;99.90;;;;;;5113647;28;20431;-61
2022/07/09 09:39:08;;;;;;;1999.90;999.90;;;20.30;99.90;;;;;;5111822;28;20439;-61
2022/07/09 09:41:34;;;;;;;1999.90;999.90;;;20.30;99.90;;;;;;5113867;28;20040;-61
2022/07/09 09:44:04;;;;;;;1999.90;999.90;;;20.30;99.90;;;;;;5113000;28;20100;-61
2022/07/09 09:46:33;;;;;;;1999.90;999.90;;;20.30;99.90;;;;;;5112183;28;20118;-61
2022/07/09 09:48:59;;;;;;;1999.90;999.90;;;20.30;99.90;;;;;;5112658;28;20035;-61
2022/07/09 09:51:30;;;;;;;1999.90;999.90;;;20.30;99.90;;;;;;5113252;28;20488;-61
2022/07/09 09:53:57;;;;;;;1999.90;999.90;;;20.30;99.90;;;;;;5112717;28;20047;-60
2022/07/09 09:56:24;;;;;;;1999.90;999.90;;;20.40;99.90;;;;;;5112583;28;20035;-61
2022/07/09 09:58:51;;;;;;;1999.90;999.90;;;20.40;99.90;;;;;;5112383;28;20054;-61
2022/07/09 10:01:17;;;;;;;1999.90;999.90;;;20.50;99.90;;;;;;5111500;28;20519;-61
2022/07/09 10:03:43;;;;;;;1999.90;999.90;;;20.50;99.90;;;;;;5093964;28;20122;-61
2022/07/09 10:06:09;;;;;;;1999.90;999.90;;;20.70;99.90;;;;;;5111697;28;20048;-61
2022/07/09 10:08:35;;;;;;;1999.90;999.90;;;21.00;99.90;;;;;;5094768;28;20061;-61
2022/07/09 10:11:01;;;;;;;1999.90;999.90;;;20.90;99.90;;;;;;5113269;28;20060;-61
2022/07/09 10:13:27;;;;;;;1999.90;999.90;;;21.00;99.90;;;;;;5111252;28;20046;-61
2022/07/09 10:15:54;;;;;;;1999.90;999.90;;;21.10;99.90;;;;;;5113198;28;20047;-60
2022/07/09 10:18:20;;;;;;;1999.90;999.90;;;21.30;99.90;;;;;;5113402;28;20078;-61
2022/07/09 10:20:46;;;;;;;1999.90;999.90;;;21.30;99.90;;;;;;5112089;28;20078;-61
2022/07/09 10:23:23;;;;;;;1999.90;999.90;;;21.30;99.90;;;;;;5101104;28;20044;-61
2022/07/09 10:25:52;;;;;;;1999.90;999.90;;;21.10;99.90;;;;;;5112761;28;20401;-61
2022/07/09 10:28:19;;;;;;;1999.90;999.90;;;20.90;99.90;;;;;;5093711;28;20047;-61
2022/07/09 10:30:46;;;;;;;1556.97;795.78;;;20.50;99.90;;;;;;5112963;28;20055;-61
2022/07/09 10:33:19;;;;;;;1551.60;796.42;;;20.10;99.90;;;;;;5112656;28;20125;-61
2022/07/09 10:35:46;;;;;;;1999.90;999.90;;;19.90;99.90;;;;;;5093919;28;20066;-61
2022/07/09 10:38:13;;;;;;;1999.90;999.90;;;19.80;99.90;;;;;;5112902;28;20079;-60
2022/07/09 10:40:41;;;;;;;1999.90;999.90;;;19.70;99.90;;;;;;5112342;28;20403;-60
2022/07/09 10:43:07;;;;;;;1999.90;999.90;;;19.60;99.90;;;;;;5111777;28;20086;-61
2022/07/09 10:45:38;;;;;;;1999.90;999.90;;;19.60;99.90;;;;;;5112648;28;20059;-61
2022/07/09 10:48:06;;;;;;;1999.90;999.90;;;19.60;99.90;;;;;;5112645;28;20048;-60
2022/07/09 10:50:36;;;;;;;1999.90;999.90;;;20.00;99.90;;;;;;5110594;28;20164;-61
2022/07/09 10:53:03;;;;;;;1999.90;999.90;;;20.60;99.90;;;;;;5112181;28;20043;-61
2022/07/09 10:55:30;;;;;;;1999.90;999.90;;;20.80;99.90;;;;;;5092326;28;20083;-61
2022/07/09 10:57:56;;;;;;;1999.90;999.90;;;20.90;99.90;;;;;;5111605;28;20054;-61
2022/07/09 11:00:25;;;;;;;1999.90;999.90;;;20.70;99.90;;;;;;5112803;28;20035;-61
2022/07/09 11:03:03;;;;;;;1999.90;999.90;;;20.50;99.90;;;;;;5111892;28;20498;-60
2022/07/09 11:05:31;;;;;;;1999.90;999.90;;;20.10;99.90;;;;;;5113822;28;20044;-61
2022/07/09 11:07:57;;;;;;;1999.90;999.90;;;19.90;99.90;;;;;;5115740;28;20473;-60
2022/07/09 11:10:24;;;;;;;1999.90;999.90;;;19.80;99.90;;;;;;5115512;28;20477;-61
2022/07/09 11:12:50;;;;;;;1999.90;999.90;;;19.90;99.90;;;;;;5115820;28;20059;-60
2022/07/09 11:15:17;;;;;;;1999.90;999.90;;;20.00;99.90;;;;;;5115959;28;20040;-61
2022/07/09 11:17:43;;;;;;;1999.90;999.90;;;20.10;99.90;;;;;;5115576;28;20051;-61
2022/07/09 11:20:11;;;;;;;1999.90;999.90;;;20.50;99.90;;;;;;5116181;28;20043;-61
2022/07/09 11:22:37;;;;;;;1999.90;999.90;;;20.60;99.90;;;;;;5116152;28;20047;-61
2022/07/09 11:25:03;;;;;;;1999.90;999.90;;;20.60;99.90;;;;;;5115166;28;20044;-61
2022/07/09 11:27:29;;;;;;;1999.90;999.90;;;20.60;99.90;;;;;;5116009;28;20043;-61
2022/07/09 11:29:54;;;;;;;1999.90;999.90;;;20.60;99.90;;;;;;5116734;28;20170;-61
2022/07/09 11:32:20;;;;;;;1999.90;999.90;;;20.60;99.90;;;;;;5115340;28;20039;-60
2022/07/09 11:34:52;;;;;;;1999.90;999.90;;;20.70;99.90;;;;;;5115709;28;20051;-61
2022/07/09 11:37:24;;;;;;;1999.90;999.90;;;20.90;99.90;;;;;;5116358;28;20058;-61
2022/07/09 11:39:51;;;;;;;1999.90;999.90;;;21.10;99.90;;;;;;5115284;28;20046;-61
2022/07/09 11:42:17;;;;;;;1999.90;999.90;;;21.60;99.90;;;;;;5110491;28;20047;-61
2022/07/09 11:44:54;;;;;;;1999.90;999.90;;;21.90;99.90;;;;;;5115254;28;20047;-61
2022/07/09 11:47:33;;;;;;;1999.90;999.90;;;22.30;99.90;;;;;;5115810;28;20378;-61
2022/07/09 11:50:06;;;;;;;1999.90;999.90;;;23.60;99.90;;;;;;5115503;28;20040;-61
2022/07/09 11:52:33;;;;;;;1999.90;999.90;;;23.60;99.90;;;;;;5115370;28;20412;-61
2022/07/09 11:55:04;;;;;;;1999.90;999.90;;;23.80;99.40;;;;;;5115950;28;20043;-61
2022/07/09 11:57:31;;;;;;;1999.90;999.90;;;23.70;99.40;;;;;;5097304;28;20393;-61
2022/07/09 11:59:57;;;;;;;1999.90;999.90;;;23.80;99.30;;;;;;5114561;28;20481;-61
2022/07/09 12:02:28;;;;;;;1999.90;999.90;;;24.00;98.10;;;;;;5115814;28;20052;-61